createdAt,value
2018-05-23T00:05:28.500Z,17.70
2018-05-23T00:09:22.008Z,17.70
2018-05-23T00:13:15.909Z,17.70
2018-05-23T00:17:09.334Z,17.60
2018-05-23T00:21:02.838Z,17.70
2018-05-23T00:24:56.271Z,17.70
2018-05-23T00:28:49.638Z,17.70
2018-05-23T00:32:42.982Z,17.70
2018-05-23T00:36:36.393Z,17.80
2018-05-23T00:40:29.600Z,17.70
2018-05-23T00:44:22.544Z,17.80
2018-05-23T00:48:15.733Z,17.80
2018-05-23T00:52:08.898Z,17.80
2018-05-23T00:56:02.057Z,17.80
2018-05-23T00:59:56.009Z,17.70
2018-05-23T01:03:49.148Z,17.60
2018-05-23T01:07:42.442Z,17.40
2018-05-23T01:11:35.703Z,17.40
2018-05-23T01:15:28.842Z,17.40
2018-05-23T01:19:22.098Z,17.40
2018-05-23T01:23:15.297Z,17.30
2018-05-23T01:27:08.537Z,17.30
2018-05-23T01:31:01.747Z,17.30
2018-05-23T01:34:54.992Z,17.30
2018-05-23T01:38:47.937Z,17.30
2018-05-23T01:42:41.902Z,17.20
2018-05-23T01:46:35.809Z,17.20
2018-05-23T01:50:29.015Z,17.20
2018-05-23T01:54:22.338Z,17.30
2018-05-23T01:58:15.585Z,17.30
2018-05-23T02:02:09.716Z,17.40
2018-05-23T02:06:03.019Z,17.40
2018-05-23T02:09:57.001Z,17.30
2018-05-23T02:13:50.308Z,17.40
2018-05-23T02:17:44.999Z,17.40
2018-05-23T02:21:38.638Z,17.40
2018-05-23T02:25:31.906Z,17.40
2018-05-23T02:29:25.138Z,17.40
2018-05-23T02:33:19.469Z,17.40
2018-05-23T02:37:12.681Z,17.40
2018-05-23T02:41:05.937Z,17.40
2018-05-23T02:45:01.877Z,17.40
2018-05-23T02:48:56.540Z,17.30
2018-05-23T02:52:49.812Z,17.30
2018-05-23T02:56:43.060Z,17.40
2018-05-23T03:00:36.039Z,17.40
2018-05-23T03:04:30.022Z,17.40
2018-05-23T03:08:23.237Z,17.40
2018-05-23T03:12:16.419Z,17.40
2018-05-23T03:16:09.617Z,17.40
2018-05-23T03:20:03.059Z,17.40
2018-05-23T03:23:57.019Z,17.40
2018-05-23T03:27:50.757Z,17.40
2018-05-23T03:31:45.513Z,17.40
2018-05-23T03:35:38.551Z,17.40
2018-05-23T03:39:31.917Z,17.40
2018-05-23T03:43:25.211Z,17.40
2018-05-23T03:47:18.701Z,17.40
2018-05-23T03:51:11.928Z,17.30
2018-05-23T04:04:11.412Z,17.20
2018-05-23T04:08:05.378Z,17.20
2018-05-23T04:11:59.331Z,17.00
2018-05-23T04:15:52.459Z,17.00
2018-05-23T04:19:46.865Z,16.80
2018-05-23T04:23:40.062Z,16.80
2018-05-23T04:27:37.688Z,16.80
2018-05-23T04:31:31.720Z,16.70
2018-05-23T04:35:25.081Z,16.70
2018-05-23T04:39:18.216Z,16.70
2018-05-23T04:43:11.350Z,16.80
2018-05-23T04:47:06.476Z,16.90
2018-05-23T04:51:01.178Z,16.80
2018-05-23T04:54:54.392Z,16.80
2018-05-23T04:58:47.543Z,16.80
2018-05-23T05:02:40.735Z,16.80
2018-05-23T05:06:34.755Z,16.90
2018-05-23T05:14:39.587Z,17.00
2018-05-23T05:18:33.852Z,17.00
2018-05-23T05:22:27.384Z,17.00
2018-05-23T05:26:21.472Z,17.00
2018-05-23T05:30:15.460Z,17.00
2018-05-23T05:34:10.155Z,17.00
2018-05-23T05:38:04.930Z,17.10
2018-05-23T05:41:58.821Z,17.20
2018-05-23T05:45:53.533Z,17.30
2018-05-23T05:49:48.024Z,17.20
2018-05-23T05:53:43.272Z,17.40
2018-05-23T05:57:36.829Z,17.30
2018-05-23T06:01:30.335Z,17.40
2018-05-23T06:05:26.829Z,17.30
2018-05-23T06:13:33.944Z,17.30
2018-05-23T06:17:28.002Z,17.40
2018-05-23T06:21:22.533Z,17.40
2018-05-23T06:25:19.186Z,17.50
2018-05-23T06:33:38.369Z,17.60
2018-05-23T06:37:32.008Z,17.70
2018-05-23T06:41:29.058Z,17.90
2018-05-23T06:45:23.767Z,17.90
2018-05-23T06:57:54.107Z,18.30
2018-05-23T07:02:07.569Z,18.50
2018-05-23T07:06:10.318Z,18.60
2018-05-23T07:10:13.734Z,18.70
2018-05-23T07:14:07.020Z,18.70
2018-05-23T07:18:01.538Z,18.90
2018-05-23T07:21:54.652Z,18.80
2018-05-23T07:25:50.390Z,18.50
2018-05-23T07:29:43.525Z,18.50
2018-05-23T07:33:36.937Z,18.50
2018-05-23T07:37:37.409Z,18.70
2018-05-23T07:41:30.938Z,18.70
2018-05-23T07:45:24.480Z,18.90
2018-05-23T07:49:45.556Z,19.00
2018-05-23T07:53:45.582Z,19.20
2018-05-23T07:57:40.198Z,19.20
2018-05-23T08:01:33.569Z,19.50
2018-05-23T08:05:27.325Z,20.10
2018-05-23T08:09:22.458Z,20.40
2018-05-23T08:13:18.985Z,20.30
2018-05-23T08:17:12.457Z,20.60
2018-05-23T08:21:06.527Z,21.10
2018-05-23T08:24:59.737Z,21.10
2018-05-23T08:28:55.331Z,21.40
2018-05-23T08:32:55.857Z,21.40
2018-05-23T08:36:49.077Z,21.50
2018-05-23T08:40:42.998Z,21.20
2018-05-23T08:44:36.808Z,21.00
2018-05-23T08:52:45.453Z,21.70
2018-05-23T08:56:39.523Z,21.60
2018-05-23T09:22:27.546Z,22.50
2018-05-23T09:26:21.580Z,22.70
2018-05-23T09:30:15.330Z,22.80
2018-05-23T09:34:09.102Z,22.50
2018-05-23T09:38:21.910Z,22.40
2018-05-23T09:46:39.896Z,22.60
2018-05-23T09:50:34.577Z,22.90
2018-05-23T09:54:29.417Z,22.90
2018-05-23T09:58:24.804Z,23.20
2018-05-23T10:10:22.516Z,23.60
2018-05-23T10:14:15.895Z,23.60
2018-05-23T10:18:23.953Z,23.80
2018-05-23T10:41:31.509Z,24.70
2018-05-23T10:45:27.697Z,24.80
2018-05-23T10:49:21.687Z,24.40
2018-05-23T10:53:20.067Z,24.40
2018-05-23T10:57:14.391Z,25.30
2018-05-23T11:01:09.512Z,25.20
2018-05-23T11:05:03.788Z,25.10
2018-05-23T11:08:57.496Z,25.10
2018-05-23T11:12:50.782Z,25.00
2018-05-23T11:16:52.238Z,24.90
2018-05-23T11:55:41.181Z,24.90
2018-05-23T12:03:54.193Z,24.50
2018-05-23T12:12:14.951Z,24.10
2018-05-23T12:20:19.909Z,24.20
2018-05-23T12:24:13.334Z,24.40
2018-05-23T12:28:07.631Z,24.50
2018-05-23T12:32:02.285Z,24.30
2018-05-23T12:35:56.089Z,24.20
2018-05-23T12:39:50.202Z,24.30
2018-05-23T12:43:43.873Z,24.30
2018-05-23T12:47:37.197Z,24.20
2018-05-23T12:51:31.503Z,24.40
2018-05-23T12:55:24.715Z,24.60
2018-05-23T12:59:18.405Z,24.90
2018-05-23T13:03:11.741Z,25.30
2018-05-23T13:07:05.099Z,25.30
2018-05-23T13:10:59.046Z,25.10
2018-05-23T13:14:52.435Z,25.10
2018-05-23T13:18:49.193Z,25.40
2018-05-23T13:22:42.407Z,25.20
2018-05-23T13:26:35.643Z,25.00
2018-05-23T13:30:28.788Z,25.00
2018-05-23T13:34:21.973Z,25.00
2018-05-23T13:38:15.514Z,24.80
2018-05-23T13:42:08.692Z,24.70
2018-05-23T13:50:22.268Z,24.90
2018-05-23T13:54:19.120Z,25.20
2018-05-23T13:58:13.064Z,25.10
2018-05-23T14:02:06.515Z,25.10
2018-05-23T14:05:59.926Z,25.20
2018-05-23T14:09:53.164Z,24.90
2018-05-23T14:13:46.341Z,24.70
2018-05-23T14:17:43.213Z,24.70
2018-05-23T14:21:39.272Z,24.40
2018-05-23T14:25:33.411Z,24.10
2018-05-23T14:29:27.461Z,24.00
2018-05-23T14:33:21.838Z,23.90
2018-05-23T14:37:15.042Z,23.90
2018-05-23T14:41:09.176Z,23.90
2018-05-23T14:45:02.518Z,24.10
2018-05-23T14:48:55.853Z,24.50
2018-05-23T14:52:48.827Z,24.60
2018-05-23T14:56:42.184Z,24.80
2018-05-23T15:00:35.590Z,24.60
2018-05-23T15:04:30.801Z,24.70
2018-05-23T15:08:24.550Z,24.70
2018-05-23T15:12:18.731Z,24.70
2018-05-23T15:16:12.351Z,24.80
2018-05-23T15:20:05.974Z,24.90
2018-05-23T15:24:01.000Z,24.70
2018-05-23T15:27:55.238Z,24.50
2018-05-23T15:36:19.379Z,24.40
2018-05-23T15:40:14.822Z,24.40
2018-05-23T15:44:24.884Z,24.70
2018-05-23T15:48:18.676Z,24.90
2018-05-23T16:35:32.811Z,24.60
2018-05-23T16:39:26.137Z,24.50
2018-05-23T16:47:58.593Z,24.40
2018-05-23T17:08:50.128Z,24.60
2018-05-23T17:12:44.232Z,24.30
2018-05-23T17:16:39.340Z,24.30
2018-05-23T17:20:35.550Z,24.20
2018-05-23T17:24:31.836Z,24.20
2018-05-23T17:28:39.704Z,24.20
2018-05-23T17:32:34.235Z,24.30
2018-05-23T17:36:27.806Z,24.40
2018-05-23T17:40:41.721Z,24.50
2018-05-23T17:44:36.077Z,24.60
2018-05-23T17:48:29.629Z,24.60
2018-05-23T17:52:24.160Z,24.40
2018-05-23T17:56:17.680Z,24.30
2018-05-23T18:00:11.438Z,24.10
2018-05-23T18:04:05.624Z,24.00
2018-05-23T18:08:01.522Z,23.90
2018-05-23T18:11:54.649Z,23.90
2018-05-23T18:15:48.492Z,23.80
2018-05-23T18:19:45.159Z,23.70
2018-05-23T18:23:42.331Z,23.60
2018-05-23T18:27:37.831Z,23.40
2018-05-23T18:31:31.903Z,23.40
2018-05-23T18:35:25.111Z,23.40
2018-05-23T18:39:18.101Z,23.30
2018-05-23T18:43:11.249Z,23.20
2018-05-23T18:47:04.485Z,23.10
2018-05-23T18:50:58.469Z,22.90
2018-05-23T18:54:52.394Z,22.80
2018-05-23T18:58:45.587Z,22.80
2018-05-23T19:02:39.528Z,22.70
2018-05-23T19:06:32.860Z,22.70
2018-05-23T19:10:28.198Z,22.60
2018-05-23T19:14:23.449Z,22.40
2018-05-23T19:18:18.285Z,22.40
2018-05-23T19:22:11.509Z,22.40
2018-05-23T19:26:04.694Z,22.30
2018-05-23T19:29:57.825Z,22.30
2018-05-23T19:33:50.926Z,22.20
2018-05-23T19:37:44.088Z,22.00
2018-05-23T19:41:37.842Z,22.00
2018-05-23T19:45:31.169Z,21.90
2018-05-23T19:49:24.949Z,21.80
2018-05-23T19:53:19.064Z,21.60
2018-05-23T19:57:12.422Z,21.60
2018-05-23T20:01:05.673Z,21.50
2018-05-23T20:04:58.996Z,21.40
2018-05-23T20:08:52.203Z,21.40
2018-05-23T20:12:45.423Z,21.40
2018-05-23T20:16:38.916Z,21.30
2018-05-23T20:20:32.288Z,21.20
2018-05-23T20:24:25.546Z,21.20
2018-05-23T20:28:20.494Z,21.10
2018-05-23T20:32:15.090Z,21.00
2018-05-23T20:36:09.059Z,20.80
2018-05-23T20:40:02.060Z,20.80
2018-05-23T20:44:00.353Z,20.60
2018-05-23T20:52:17.703Z,20.50
2018-05-23T21:00:37.090Z,20.40
2018-05-23T21:04:30.381Z,20.40
2018-05-23T21:08:23.569Z,20.30
2018-05-23T21:12:17.674Z,20.30
2018-05-23T21:16:11.252Z,20.30
2018-05-23T21:20:05.212Z,20.20
2018-05-23T21:23:58.447Z,20.10
2018-05-23T21:27:51.821Z,20.20
2018-05-23T21:31:44.946Z,20.10
2018-05-23T21:35:38.936Z,19.90
2018-05-23T21:39:32.769Z,19.90
2018-05-23T21:43:26.048Z,19.80
2018-05-23T21:47:19.292Z,19.80
2018-05-23T21:51:12.515Z,19.90
2018-05-23T21:55:05.854Z,19.80
2018-05-23T21:59:00.251Z,19.80
2018-05-23T22:02:53.372Z,19.80
2018-05-23T22:06:46.494Z,19.80
2018-05-23T22:10:39.652Z,19.80
2018-05-23T22:14:32.828Z,19.70
2018-05-23T22:18:26.007Z,19.70
2018-05-23T22:22:19.421Z,19.50
2018-05-23T22:26:11.912Z,19.40
2018-05-23T22:30:05.799Z,19.30
2018-05-23T22:33:59.328Z,19.20
2018-05-23T22:37:52.505Z,19.10
2018-05-23T22:41:47.536Z,19.10
2018-05-23T22:45:40.574Z,19.10
2018-05-23T22:49:33.774Z,19.10
2018-05-23T22:53:26.895Z,19.10
2018-05-23T22:57:20.298Z,19.00
2018-05-23T23:01:16.721Z,19.00
2018-05-23T23:05:09.853Z,18.90
2018-05-23T23:09:02.987Z,18.90
2018-05-23T23:12:56.251Z,19.00
2018-05-23T23:16:49.740Z,18.90
2018-05-23T23:20:43.766Z,18.80
2018-05-23T23:24:36.981Z,18.80
2018-05-23T23:28:30.322Z,18.80
2018-05-23T23:32:24.281Z,18.70
2018-05-23T23:36:17.447Z,18.70
2018-05-23T23:40:11.524Z,18.70
2018-05-23T23:44:04.779Z,18.70
2018-05-23T23:47:58.716Z,18.50
2018-05-23T23:51:51.835Z,18.40
2018-05-23T23:55:45.043Z,18.50
2018-05-23T23:59:38.225Z,18.50
